Sapelo Island, GA (31327)

4:32 AM EDT on October 24, 2014 (GMT -0400)
Glynco Jetport | Change Station
CLOSE
Current Station
Airport
Location: Brunswick,
Elevation: 26 ft
Nearby Weather Stations

Elev 26 ft 31.26 °N, 81.47 °W | Updated 17 minutes ago

Mostly Cloudy
Mostly Cloudy
46 °F
Feels Like 46 °F
N
0
Wind Variable Wind from North

Today
High -- | Low -- °F
--% Chance of Precip.
Yesterday
High -- | Low -- °F
Precip. -- in
7:34 AM 6:43 PM
New Moon, 0% visible
Pressure 30.02 in
Visibility 3.0 miles
Clouds Clear
Dew Point 46 °F
Humidity 100%
Rainfall 0.00 in
Snow Depth Not available.
UV 0 out of 12
Pollen 4.20 out of 12
Air Quality Not available.
Flu Activity Sporadic
METAR KBQK 240815Z AUTO 00000KT 3SM CLR 08/08 A3002 RMK AO1

More Conditions Fewer Conditions

Pressure 30.02 in
Visibility 3.0 miles
Clouds Clear
Dew Point 46 °F
Humidity 100%
Rainfall 0.00 in
Snow Depth Not available.
UV 0 out of 12
Pollen 4.20 out of 12
Air Quality Not available.
Flu Activity Sporadic
METAR KBQK 240815Z AUTO 00000KT 3SM CLR 08/08 A3002 RMK AO1

More Conditions Fewer Conditions

10-Day Weather Forecast

Almanac

Astronomy

Oct. 24, 2014 Rise Set
Actual Time 7:34 AM EDT 6:43 PM EDT
Civil Twilight 7:09 AM EDT 7:08 PM EDT
Nautical Twilight 6:41 AM EDT 7:36 PM EDT
Astronomical Twilight 6:13 AM EDT 8:04 PM EDT
Moon 8:10 AM EDT 7:25 PM EDT
Length of Visible Light 11h 58m
Length of Day
11h 08m
Tomorrow will be 1m 46s shorter.
New Moon, 0% of the Moon is Illuminated
Today
New Moon
Oct 30
First Quarter
Nov 6
Full
Nov 14
Last Quarter
Nov 22
New

Today's Extremes

State Highs State Lows

Community

WunderPhotos

Upload Photos

1,764,511 photos uploaded!

WunderBlogs® & News

Nearby

Snow Depth

Station Depth Elevation
No new snow has been reported.

Earthquake Activity

City Distance Mag. Time & Date
No recent earthquake activity has been reported nearby.
Minimum magnitude displayed is 2.5.

Coastal Water Temperatures

Place Temperature
No Stations Reporting

Nearby Weather Stations